sensor_id;sensor_type;location;lat;lon;timestamp;temperature;humidity
20777;DHT22;10548;47.504;8.248;2024-02-23T00:13:22;6.80;99.90
20777;DHT22;10548;47.504;8.248;2024-02-23T00:30:36;6.80;99.90
20777;DHT22;10548;47.504;8.248;2024-02-23T00:35:31;6.80;99.90
20777;DHT22;10548;47.504;8.248;2024-02-23T00:45:22;6.70;99.90
20777;DHT22;10548;47.504;8.248;2024-02-23T00:47:49;5.60;99.90
20777;DHT22;10548;47.504;8.248;2024-02-23T00:50:17;5.10;99.90
20777;DHT22;10548;47.504;8.248;2024-02-23T00:55:11;5.00;99.90
20777;DHT22;10548;47.504;8.248;2024-02-23T00:57:39;4.80;99.90
20777;DHT22;10548;47.504;8.248;2024-02-23T01:00:07;4.60;99.90
20777;DHT22;10548;47.504;8.248;2024-02-23T01:02:37;4.50;99.90
20777;DHT22;10548;47.504;8.248;2024-02-23T01:05:05;4.50;99.90
20777;DHT22;10548;47.504;8.248;2024-02-23T01:07:33;4.50;99.90
20777;DHT22;10548;47.504;8.248;2024-02-23T01:10:00;4.50;99.90
20777;DHT22;10548;47.504;8.248;2024-02-23T01:12:28;4.60;99.90
20777;DHT22;10548;47.504;8.248;2024-02-23T01:14:55;4.60;99.90
20777;DHT22;10548;47.504;8.248;2024-02-23T01:17:22;4.60;99.90
20777;DHT22;10548;47.504;8.248;2024-02-23T01:19:50;4.60;99.90
20777;DHT22;10548;47.504;8.248;2024-02-23T01:22:17;4.60;99.90
20777;DHT22;10548;47.504;8.248;2024-02-23T01:24:45;4.70;99.90
20777;DHT22;10548;47.504;8.248;2024-02-23T01:27:12;4.70;99.90
20777;DHT22;10548;47.504;8.248;2024-02-23T01:29:39;4.70;99.90
20777;DHT22;10548;47.504;8.248;2024-02-23T01:32:07;4.80;99.90
20777;DHT22;10548;47.504;8.248;2024-02-23T01:34:34;4.80;99.90
20777;DHT22;10548;47.504;8.248;2024-02-23T01:37:01;4.70;99.90
20777;DHT22;10548;47.504;8.248;2024-02-23T01:39:29;4.80;99.90
20777;DHT22;10548;47.504;8.248;2024-02-23T01:41:56;4.80;99.90
20777;DHT22;10548;47.504;8.248;2024-02-23T01:44:23;4.80;99.90
20777;DHT22;10548;47.504;8.248;2024-02-23T01:46:51;4.90;99.90
20777;DHT22;10548;47.504;8.248;2024-02-23T01:49:20;4.90;99.90
20777;DHT22;10548;47.504;8.248;2024-02-23T01:51:48;4.90;99.90
20777;DHT22;10548;47.504;8.248;2024-02-23T01:54:16;5.00;99.90
20777;DHT22;10548;47.504;8.248;2024-02-23T01:56:44;4.90;99.90
20777;DHT22;10548;47.504;8.248;2024-02-23T01:59:12;4.80;99.90
20777;DHT22;10548;47.504;8.248;2024-02-23T02:01:43;4.80;99.90
20777;DHT22;10548;47.504;8.248;2024-02-23T02:04:10;4.80;99.90
20777;DHT22;10548;47.504;8.248;2024-02-23T02:06:38;4.80;99.90
20777;DHT22;10548;47.504;8.248;2024-02-23T02:09:06;4.80;99.90
20777;DHT22;10548;47.504;8.248;2024-02-23T02:11:33;4.80;99.90
20777;DHT22;10548;47.504;8.248;2024-02-23T02:14:00;4.80;99.90
20777;DHT22;10548;47.504;8.248;2024-02-23T02:16:28;4.80;99.90
20777;DHT22;10548;47.504;8.248;2024-02-23T02:18:55;4.80;99.90
20777;DHT22;10548;47.504;8.248;2024-02-23T02:21:22;4.90;99.90
20777;DHT22;10548;47.504;8.248;2024-02-23T02:23:52;4.90;99.90
20777;DHT22;10548;47.504;8.248;2024-02-23T02:26:19;4.90;99.90
20777;DHT22;10548;47.504;8.248;2024-02-23T02:28:47;4.80;99.90
20777;DHT22;10548;47.504;8.248;2024-02-23T02:31:14;4.70;99.90
20777;DHT22;10548;47.504;8.248;2024-02-23T02:33:41;4.70;99.90
20777;DHT22;10548;47.504;8.248;2024-02-23T02:36:09;4.70;99.90
20777;DHT22;10548;47.504;8.248;2024-02-23T02:38:36;4.70;99.90
20777;DHT22;10548;47.504;8.248;2024-02-23T02:41:04;4.60;99.90
20777;DHT22;10548;47.504;8.248;2024-02-23T02:43:31;4.70;99.90
20777;DHT22;10548;47.504;8.248;2024-02-23T02:45:59;4.70;99.90
20777;DHT22;10548;47.504;8.248;2024-02-23T02:48:26;4.70;99.90
20777;DHT22;10548;47.504;8.248;2024-02-23T02:50:54;4.70;99.90
20777;DHT22;10548;47.504;8.248;2024-02-23T02:53:21;4.80;99.90
20777;DHT22;10548;47.504;8.248;2024-02-23T02:55:48;4.80;99.90
20777;DHT22;10548;47.504;8.248;2024-02-23T02:58:16;4.80;99.90
20777;DHT22;10548;47.504;8.248;2024-02-23T03:00:43;4.70;99.90
20777;DHT22;10548;47.504;8.248;2024-02-23T03:03:11;4.60;99.90
20777;DHT22;10548;47.504;8.248;2024-02-23T03:05:39;4.60;99.90
20777;DHT22;10548;47.504;8.248;2024-02-23T03:08:07;4.50;99.90
20777;DHT22;10548;47.504;8.248;2024-02-23T03:10:34;4.50;99.90
20777;DHT22;10548;47.504;8.248;2024-02-23T03:13:02;4.50;99.90
20777;DHT22;10548;47.504;8.248;2024-02-23T03:15:29;4.50;99.90
20777;DHT22;10548;47.504;8.248;2024-02-23T03:17:56;4.50;99.90
20777;DHT22;10548;47.504;8.248;2024-02-23T03:20:24;4.50;99.90
20777;DHT22;10548;47.504;8.248;2024-02-23T03:22:51;4.60;99.90
20777;DHT22;10548;47.504;8.248;2024-02-23T03:25:19;4.70;99.90
20777;DHT22;10548;47.504;8.248;2024-02-23T03:27:46;4.60;99.90
20777;DHT22;10548;47.504;8.248;2024-02-23T03:30:14;4.60;99.90
20777;DHT22;10548;47.504;8.248;2024-02-23T03:32:41;4.60;99.90
20777;DHT22;10548;47.504;8.248;2024-02-23T03:35:09;4.50;99.90
20777;DHT22;10548;47.504;8.248;2024-02-23T03:37:37;4.40;99.90
20777;DHT22;10548;47.504;8.248;2024-02-23T03:40:06;4.50;99.90
20777;DHT22;10548;47.504;8.248;2024-02-23T03:42:34;4.40;99.90
20777;DHT22;10548;47.504;8.248;2024-02-23T03:45:01;4.40;99.90
20777;DHT22;10548;47.504;8.248;2024-02-23T03:47:29;4.40;99.90
20777;DHT22;10548;47.504;8.248;2024-02-23T03:49:56;4.50;99.90
20777;DHT22;10548;47.504;8.248;2024-02-23T03:52:24;4.50;99.90
20777;DHT22;10548;47.504;8.248;2024-02-23T03:54:51;4.50;99.90
20777;DHT22;10548;47.504;8.248;2024-02-23T03:57:18;4.50;99.90
20777;DHT22;10548;47.504;8.248;2024-02-23T03:59:55;4.50;99.90
20777;DHT22;10548;47.504;8.248;2024-02-23T04:02:23;4.40;99.90
20777;DHT22;10548;47.504;8.248;2024-02-23T04:04:50;4.40;99.90
20777;DHT22;10548;47.504;8.248;2024-02-23T04:07:17;4.40;99.90
20777;DHT22;10548;47.504;8.248;2024-02-23T04:09:45;4.40;99.90
20777;DHT22;10548;47.504;8.248;2024-02-23T04:12:12;4.40;99.90
20777;DHT22;10548;47.504;8.248;2024-02-23T04:14:40;4.50;99.90
20777;DHT22;10548;47.504;8.248;2024-02-23T04:17:07;4.50;99.90
20777;DHT22;10548;47.504;8.248;2024-02-23T04:19:35;4.50;99.90
20777;DHT22;10548;47.504;8.248;2024-02-23T04:22:03;4.40;99.90
20777;DHT22;10548;47.504;8.248;2024-02-23T04:24:30;4.40;99.90
20777;DHT22;10548;47.504;8.248;2024-02-23T04:26:57;4.30;99.90
20777;DHT22;10548;47.504;8.248;2024-02-23T04:29:24;4.30;99.90
20777;DHT22;10548;47.504;8.248;2024-02-23T04:31:52;4.30;99.90
20777;DHT22;10548;47.504;8.248;2024-02-23T04:34:19;4.40;99.90
20777;DHT22;10548;47.504;8.248;2024-02-23T04:36:46;4.40;99.90
20777;DHT22;10548;47.504;8.248;2024-02-23T04:39:14;4.40;99.90
20777;DHT22;10548;47.504;8.248;2024-02-23T04:41:41;4.30;99.90
20777;DHT22;10548;47.504;8.248;2024-02-23T04:44:09;4.40;99.90
20777;DHT22;10548;47.504;8.248;2024-02-23T04:46:36;4.40;99.90
20777;DHT22;10548;47.504;8.248;2024-02-23T04:49:03;4.40;99.90
20777;DHT22;10548;47.504;8.248;2024-02-23T04:51:31;4.40;99.90
20777;DHT22;10548;47.504;8.248;2024-02-23T04:53:58;4.30;99.90
20777;DHT22;10548;47.504;8.248;2024-02-23T04:56:25;4.20;99.90
20777;DHT22;10548;47.504;8.248;2024-02-23T04:58:52;4.30;99.90
20777;DHT22;10548;47.504;8.248;2024-02-23T05:01:20;4.20;99.90
20777;DHT22;10548;47.504;8.248;2024-02-23T05:03:47;4.20;99.90
20777;DHT22;10548;47.504;8.248;2024-02-23T05:06:14;4.20;99.90
20777;DHT22;10548;47.504;8.248;2024-02-23T05:08:42;4.20;99.90
20777;DHT22;10548;47.504;8.248;2024-02-23T05:11:10;4.20;99.90
20777;DHT22;10548;47.504;8.248;2024-02-23T05:13:37;4.10;99.90
20777;DHT22;10548;47.504;8.248;2024-02-23T05:16:06;4.20;99.90
20777;DHT22;10548;47.504;8.248;2024-02-23T05:18:33;4.20;99.90
20777;DHT22;10548;47.504;8.248;2024-02-23T05:21:01;4.20;99.90
20777;DHT22;10548;47.504;8.248;2024-02-23T05:23:28;4.10;99.90
20777;DHT22;10548;47.504;8.248;2024-02-23T05:25:56;4.10;99.90
20777;DHT22;10548;47.504;8.248;2024-02-23T05:28:23;4.10;99.90
20777;DHT22;10548;47.504;8.248;2024-02-23T05:30:51;4.10;99.90
20777;DHT22;10548;47.504;8.248;2024-02-23T05:33:18;4.10;99.90
20777;DHT22;10548;47.504;8.248;2024-02-23T05:35:47;4.00;99.90
20777;DHT22;10548;47.504;8.248;2024-02-23T05:38:17;4.00;99.90
20777;DHT22;10548;47.504;8.248;2024-02-23T05:40:45;4.00;99.90
20777;DHT22;10548;47.504;8.248;2024-02-23T05:43:13;3.90;99.90
20777;DHT22;10548;47.504;8.248;2024-02-23T05:45:40;3.90;99.90
20777;DHT22;10548;47.504;8.248;2024-02-23T05:48:08;3.90;99.90
20777;DHT22;10548;47.504;8.248;2024-02-23T05:50:35;3.90;99.90
20777;DHT22;10548;47.504;8.248;2024-02-23T05:53:03;3.80;99.90
20777;DHT22;10548;47.504;8.248;2024-02-23T05:55:31;3.80;99.90
20777;DHT22;10548;47.504;8.248;2024-02-23T05:57:59;3.80;99.90
20777;DHT22;10548;47.504;8.248;2024-02-23T06:00:26;3.80;99.90
20777;DHT22;10548;47.504;8.248;2024-02-23T06:02:53;3.80;99.90
20777;DHT22;10548;47.504;8.248;2024-02-23T06:05:20;3.90;99.90
20777;DHT22;10548;47.504;8.248;2024-02-23T06:07:48;3.90;99.90
20777;DHT22;10548;47.504;8.248;2024-02-23T06:10:16;3.90;99.90
20777;DHT22;10548;47.504;8.248;2024-02-23T06:12:43;4.00;99.90
20777;DHT22;10548;47.504;8.248;2024-02-23T06:15:10;4.00;99.90
20777;DHT22;10548;47.504;8.248;2024-02-23T06:17:38;3.90;99.90
20777;DHT22;10548;47.504;8.248;2024-02-23T06:20:08;3.90;99.90
20777;DHT22;10548;47.504;8.248;2024-02-23T06:22:36;3.80;99.90
20777;DHT22;10548;47.504;8.248;2024-02-23T06:25:04;3.60;99.90
20777;DHT22;10548;47.504;8.248;2024-02-23T06:27:32;3.60;99.90
20777;DHT22;10548;47.504;8.248;2024-02-23T06:30:00;3.60;99.90
20777;DHT22;10548;47.504;8.248;2024-02-23T06:32:27;3.50;99.90
20777;DHT22;10548;47.504;8.248;2024-02-23T06:34:55;3.50;99.90
20777;DHT22;10548;47.504;8.248;2024-02-23T06:37:26;3.50;99.90
20777;DHT22;10548;47.504;8.248;2024-02-23T06:39:53;3.50;99.90
20777;DHT22;10548;47.504;8.248;2024-02-23T06:42:21;3.50;99.90
20777;DHT22;10548;47.504;8.248;2024-02-23T06:44:49;3.60;99.90
20777;DHT22;10548;47.504;8.248;2024-02-23T06:47:16;3.60;99.90
20777;DHT22;10548;47.504;8.248;2024-02-23T06:49:44;3.60;99.90
20777;DHT22;10548;47.504;8.248;2024-02-23T06:52:11;3.50;99.90
20777;DHT22;10548;47.504;8.248;2024-02-23T06:54:39;3.60;99.90
20777;DHT22;10548;47.504;8.248;2024-02-23T06:57:06;3.60;99.90
20777;DHT22;10548;47.504;8.248;2024-02-23T06:59:33;3.50;99.90
20777;DHT22;10548;47.504;8.248;2024-02-23T07:02:01;3.60;99.90
20777;DHT22;10548;47.504;8.248;2024-02-23T07:04:29;3.50;99.90
20777;DHT22;10548;47.504;8.248;2024-02-23T07:06:56;3.50;99.90
20777;DHT22;10548;47.504;8.248;2024-02-23T07:09:24;3.60;99.90
20777;DHT22;10548;47.504;8.248;2024-02-23T07:11:51;3.60;99.90
20777;DHT22;10548;47.504;8.248;2024-02-23T07:14:19;3.60;99.90
20777;DHT22;10548;47.504;8.248;2024-02-23T07:16:47;3.50;99.90
20777;DHT22;10548;47.504;8.248;2024-02-23T07:19:14;3.40;99.90
20777;DHT22;10548;47.504;8.248;2024-02-23T07:21:42;3.30;99.90
20777;DHT22;10548;47.504;8.248;2024-02-23T07:24:10;3.40;99.90
20777;DHT22;10548;47.504;8.248;2024-02-23T07:26:37;3.40;99.90
20777;DHT22;10548;47.504;8.248;2024-02-23T07:29:05;3.40;99.90
20777;DHT22;10548;47.504;8.248;2024-02-23T07:31:32;3.50;99.90
20777;DHT22;10548;47.504;8.248;2024-02-23T07:34:00;3.50;99.90
20777;DHT22;10548;47.504;8.248;2024-02-23T07:36:27;3.50;99.90
20777;DHT22;10548;47.504;8.248;2024-02-23T07:38:54;3.50;99.90
20777;DHT22;10548;47.504;8.248;2024-02-23T07:41:22;3.50;99.90
20777;DHT22;10548;47.504;8.248;2024-02-23T07:43:49;3.50;99.90
20777;DHT22;10548;47.504;8.248;2024-02-23T07:46:16;3.50;99.90
20777;DHT22;10548;47.504;8.248;2024-02-23T07:48:44;3.40;99.90
20777;DHT22;10548;47.504;8.248;2024-02-23T07:51:11;3.40;99.90
20777;DHT22;10548;47.504;8.248;2024-02-23T07:53:38;3.40;99.90
20777;DHT22;10548;47.504;8.248;2024-02-23T07:56:08;3.60;99.90
20777;DHT22;10548;47.504;8.248;2024-02-23T07:58:35;3.70;99.90
20777;DHT22;10548;47.504;8.248;2024-02-23T08:01:02;3.80;99.90
20777;DHT22;10548;47.504;8.248;2024-02-23T08:03:30;3.90;99.90
20777;DHT22;10548;47.504;8.248;2024-02-23T08:05:57;3.90;99.90
20777;DHT22;10548;47.504;8.248;2024-02-23T08:08:29;4.00;99.90
20777;DHT22;10548;47.504;8.248;2024-02-23T08:11:00;4.00;99.90
20777;DHT22;10548;47.504;8.248;2024-02-23T08:13:27;4.10;99.90
20777;DHT22;10548;47.504;8.248;2024-02-23T08:15:55;4.10;99.90
20777;DHT22;10548;47.504;8.248;2024-02-23T08:18:22;4.10;99.90
20777;DHT22;10548;47.504;8.248;2024-02-23T08:20:51;4.10;99.90
20777;DHT22;10548;47.504;8.248;2024-02-23T08:23:19;4.20;99.90
20777;DHT22;10548;47.504;8.248;2024-02-23T08:25:47;4.30;99.90
20777;DHT22;10548;47.504;8.248;2024-02-23T08:28:14;4.40;99.90
20777;DHT22;10548;47.504;8.248;2024-02-23T08:30:42;4.60;99.90
20777;DHT22;10548;47.504;8.248;2024-02-23T08:33:09;4.70;99.90
20777;DHT22;10548;47.504;8.248;2024-02-23T08:35:37;4.80;99.90
20777;DHT22;10548;47.504;8.248;2024-02-23T08:38:04;4.80;99.90
20777;DHT22;10548;47.504;8.248;2024-02-23T08:40:31;4.90;99.90
20777;DHT22;10548;47.504;8.248;2024-02-23T08:42:59;5.00;99.90
20777;DHT22;10548;47.504;8.248;2024-02-23T08:45:27;5.10;99.90
20777;DHT22;10548;47.504;8.248;2024-02-23T08:47:54;4.90;99.90
20777;DHT22;10548;47.504;8.248;2024-02-23T08:50:24;4.80;99.90
20777;DHT22;10548;47.504;8.248;2024-02-23T08:52:51;4.90;99.90
20777;DHT22;10548;47.504;8.248;2024-02-23T08:55:18;5.00;99.90
20777;DHT22;10548;47.504;8.248;2024-02-23T08:57:46;5.20;99.90
20777;DHT22;10548;47.504;8.248;2024-02-23T09:00:13;5.00;99.90
20777;DHT22;10548;47.504;8.248;2024-02-23T09:02:44;4.80;99.90
20777;DHT22;10548;47.504;8.248;2024-02-23T09:05:11;4.80;99.90
20777;DHT22;10548;47.504;8.248;2024-02-23T09:07:39;5.10;99.90
20777;DHT22;10548;47.504;8.248;2024-02-23T09:10:08;5.20;99.90
20777;DHT22;10548;47.504;8.248;2024-02-23T09:12:35;5.20;99.90
20777;DHT22;10548;47.504;8.248;2024-02-23T09:15:03;5.40;99.90
20777;DHT22;10548;47.504;8.248;2024-02-23T09:17:30;5.90;99.90
20777;DHT22;10548;47.504;8.248;2024-02-23T09:19:58;6.50;99.90
20777;DHT22;10548;47.504;8.248;2024-02-23T09:22:25;7.00;99.90
20777;DHT22;10548;47.504;8.248;2024-02-23T09:24:53;6.00;99.90
20777;DHT22;10548;47.504;8.248;2024-02-23T09:27:21;6.10;99.90
20777;DHT22;10548;47.504;8.248;2024-02-23T09:29:48;6.20;99.90
20777;DHT22;10548;47.504;8.248;2024-02-23T09:32:16;6.60;99.90
20777;DHT22;10548;47.504;8.248;2024-02-23T09:34:43;6.70;99.90
20777;DHT22;10548;47.504;8.248;2024-02-23T09:37:10;6.00;99.90
20777;DHT22;10548;47.504;8.248;2024-02-23T09:39:38;5.80;99.90
20777;DHT22;10548;47.504;8.248;2024-02-23T09:42:09;6.20;99.90
20777;DHT22;10548;47.504;8.248;2024-02-23T09:44:38;6.20;99.90
20777;DHT22;10548;47.504;8.248;2024-02-23T09:47:07;6.50;99.90
20777;DHT22;10548;47.504;8.248;2024-02-23T09:49:40;6.60;99.90
20777;DHT22;10548;47.504;8.248;2024-02-23T09:52:08;6.60;99.90
20777;DHT22;10548;47.504;8.248;2024-02-23T09:54:39;6.50;99.90
20777;DHT22;10548;47.504;8.248;2024-02-23T09:57:08;7.00;99.90
20777;DHT22;10548;47.504;8.248;2024-02-23T09:59:37;7.20;99.90
20777;DHT22;10548;47.504;8.248;2024-02-23T10:02:08;7.60;99.90
20777;DHT22;10548;47.504;8.248;2024-02-23T10:04:39;6.90;99.90
20777;DHT22;10548;47.504;8.248;2024-02-23T10:07:07;7.00;99.90
20777;DHT22;10548;47.504;8.248;2024-02-23T10:09:35;7.50;99.90
20777;DHT22;10548;47.504;8.248;2024-02-23T10:12:03;8.30;99.90
20777;DHT22;10548;47.504;8.248;2024-02-23T10:14:31;7.50;99.90
20777;DHT22;10548;47.504;8.248;2024-02-23T10:16:58;8.00;99.90
20777;DHT22;10548;47.504;8.248;2024-02-23T10:19:26;7.40;99.90
20777;DHT22;10548;47.504;8.248;2024-02-23T10:21:56;7.00;99.90
20777;DHT22;10548;47.504;8.248;2024-02-23T10:24:24;7.10;99.90
20777;DHT22;10548;47.504;8.248;2024-02-23T10:26:52;7.20;99.90
20777;DHT22;10548;47.504;8.248;2024-02-23T10:29:19;7.30;99.90
20777;DHT22;10548;47.504;8.248;2024-02-23T10:31:51;7.10;99.90
20777;DHT22;10548;47.504;8.248;2024-02-23T10:34:20;7.40;99.90
20777;DHT22;10548;47.504;8.248;2024-02-23T10:36:47;7.50;99.90
20777;DHT22;10548;47.504;8.248;2024-02-23T10:39:18;7.40;99.90
20777;DHT22;10548;47.504;8.248;2024-02-23T10:41:57;7.20;99.90
20777;DHT22;10548;47.504;8.248;2024-02-23T10:44:28;8.20;99.90
20777;DHT22;10548;47.504;8.248;2024-02-23T10:46:58;8.30;99.90
20777;DHT22;10548;47.504;8.248;2024-02-23T10:49:31;9.00;99.90
20777;DHT22;10548;47.504;8.248;2024-02-23T10:51:58;9.40;99.80
20777;DHT22;10548;47.504;8.248;2024-02-23T10:54:26;10.00;97.50
20777;DHT22;10548;47.504;8.248;2024-02-23T10:56:53;10.50;95.40
20777;DHT22;10548;47.504;8.248;2024-02-23T10:59:23;11.80;94.20
20777;DHT22;10548;47.504;8.248;2024-02-23T11:01:54;11.60;89.80
20777;DHT22;10548;47.504;8.248;2024-02-23T11:04:26;11.40;92.00
20777;DHT22;10548;47.504;8.248;2024-02-23T11:06:55;12.50;91.00
20777;DHT22;10548;47.504;8.248;2024-02-23T11:09:26;11.60;87.90
20777;DHT22;10548;47.504;8.248;2024-02-23T11:11:56;12.00;88.00
20777;DHT22;10548;47.504;8.248;2024-02-23T11:14:38;12.00;91.00
20777;DHT22;10548;47.504;8.248;2024-02-23T11:17:06;11.50;83.20
20777;DHT22;10548;47.504;8.248;2024-02-23T11:19:39;10.10;88.80
20777;DHT22;10548;47.504;8.248;2024-02-23T11:22:10;9.70;90.40
20777;DHT22;10548;47.504;8.248;2024-02-23T11:24:49;9.60;91.00
20777;DHT22;10548;47.504;8.248;2024-02-23T11:27:24;9.80;91.50
20777;DHT22;10548;47.504;8.248;2024-02-23T11:30:05;10.10;90.70
20777;DHT22;10548;47.504;8.248;2024-02-23T11:32:41;10.30;92.10
20777;DHT22;10548;47.504;8.248;2024-02-23T11:35:13;10.80;90.80
20777;DHT22;10548;47.504;8.248;2024-02-23T11:37:55;9.30;88.40
20777;DHT22;10548;47.504;8.248;2024-02-23T11:40:28;10.00;89.20
20777;DHT22;10548;47.504;8.248;2024-02-23T11:42:55;10.80;89.50
20777;DHT22;10548;47.504;8.248;2024-02-23T11:45:28;10.20;79.90
20777;DHT22;10548;47.504;8.248;2024-02-23T11:47:55;9.70;82.10
20777;DHT22;10548;47.504;8.248;2024-02-23T11:52:51;9.40;82.00
20777;DHT22;10548;47.504;8.248;2024-02-23T11:55:22;9.90;81.70
20777;DHT22;10548;47.504;8.248;2024-02-23T11:57:50;10.00;83.30
20777;DHT22;10548;47.504;8.248;2024-02-23T12:00:31;10.60;82.40
20777;DHT22;10548;47.504;8.248;2024-02-23T12:02:59;10.60;82.20
20777;DHT22;10548;47.504;8.248;2024-02-23T12:05:26;9.70;82.40
20777;DHT22;10548;47.504;8.248;2024-02-23T12:07:54;9.90;83.50
20777;DHT22;10548;47.504;8.248;2024-02-23T12:10:22;10.60;73.10
20777;DHT22;10548;47.504;8.248;2024-02-23T12:12:49;11.00;71.50
20777;DHT22;10548;47.504;8.248;2024-02-23T12:15:17;10.40;81.50
20777;DHT22;10548;47.504;8.248;2024-02-23T12:17:48;10.20;80.00
20777;DHT22;10548;47.504;8.248;2024-02-23T12:20:16;9.70;82.20
20777;DHT22;10548;47.504;8.248;2024-02-23T12:22:44;10.00;80.80
20777;DHT22;10548;47.504;8.248;2024-02-23T12:25:12;9.80;76.60
20777;DHT22;10548;47.504;8.248;2024-02-23T12:27:40;10.30;75.10
20777;DHT22;10548;47.504;8.248;2024-02-23T12:30:15;10.20;80.70
20777;DHT22;10548;47.504;8.248;2024-02-23T12:32:43;10.30;78.50
20777;DHT22;10548;47.504;8.248;2024-02-23T12:35:11;10.50;78.20
20777;DHT22;10548;47.504;8.248;2024-02-23T12:37:40;10.50;78.90
20777;DHT22;10548;47.504;8.248;2024-02-23T12:40:11;10.20;81.50
20777;DHT22;10548;47.504;8.248;2024-02-23T12:42:40;10.60;84.80
20777;DHT22;10548;47.504;8.248;2024-02-23T12:45:08;10.50;82.50
20777;DHT22;10548;47.504;8.248;2024-02-23T12:47:35;10.60;87.40
20777;DHT22;10548;47.504;8.248;2024-02-23T12:50:03;10.80;83.50
20777;DHT22;10548;47.504;8.248;2024-02-23T12:52:31;11.00;85.70
20777;DHT22;10548;47.504;8.248;2024-02-23T12:54:58;11.00;83.70
20777;DHT22;10548;47.504;8.248;2024-02-23T12:57:25;10.90;83.80
20777;DHT22;10548;47.504;8.248;2024-02-23T12:59:53;11.00;83.50
20777;DHT22;10548;47.504;8.248;2024-02-23T13:02:23;11.10;84.70
20777;DHT22;10548;47.504;8.248;2024-02-23T13:04:50;11.10;85.30
20777;DHT22;10548;47.504;8.248;2024-02-23T13:07:18;11.40;83.90
20777;DHT22;10548;47.504;8.248;2024-02-23T13:09:45;11.30;82.00
20777;DHT22;10548;47.504;8.248;2024-02-23T13:12:12;11.20;81.00
20777;DHT22;10548;47.504;8.248;2024-02-23T13:14:40;11.10;78.80
20777;DHT22;10548;47.504;8.248;2024-02-23T13:17:07;10.90;81.70
20777;DHT22;10548;47.504;8.248;2024-02-23T13:19:35;11.10;82.00
20777;DHT22;10548;47.504;8.248;2024-02-23T13:22:02;11.10;81.10
20777;DHT22;10548;47.504;8.248;2024-02-23T13:24:29;10.90;85.40
20777;DHT22;10548;47.504;8.248;2024-02-23T13:26:57;10.90;84.50
20777;DHT22;10548;47.504;8.248;2024-02-23T13:29:24;10.70;90.60
20777;DHT22;10548;47.504;8.248;2024-02-23T13:31:51;10.70;90.90
20777;DHT22;10548;47.504;8.248;2024-02-23T13:34:19;10.60;90.80
20777;DHT22;10548;47.504;8.248;2024-02-23T13:36:46;10.60;87.70
20777;DHT22;10548;47.504;8.248;2024-02-23T13:39:14;10.60;89.70
20777;DHT22;10548;47.504;8.248;2024-02-23T13:41:41;10.70;91.30
20777;DHT22;10548;47.504;8.248;2024-02-23T13:44:09;10.60;90.70
20777;DHT22;10548;47.504;8.248;2024-02-23T13:46:38;10.50;93.80
20777;DHT22;10548;47.504;8.248;2024-02-23T13:49:07;10.40;93.60
20777;DHT22;10548;47.504;8.248;2024-02-23T13:51:34;10.30;93.50
20777;DHT22;10548;47.504;8.248;2024-02-23T13:54:02;10.10;94.70
20777;DHT22;10548;47.504;8.248;2024-02-23T13:56:30;10.10;94.10
20777;DHT22;10548;47.504;8.248;2024-02-23T13:58:57;10.30;97.00
20777;DHT22;10548;47.504;8.248;2024-02-23T14:01:25;10.30;96.70
20777;DHT22;10548;47.504;8.248;2024-02-23T14:03:52;10.10;98.00
20777;DHT22;10548;47.504;8.248;2024-02-23T14:06:19;10.20;97.00
20777;DHT22;10548;47.504;8.248;2024-02-23T14:08:47;10.10;97.20
20777;DHT22;10548;47.504;8.248;2024-02-23T14:11:15;10.00;96.30
20777;DHT22;10548;47.504;8.248;2024-02-23T14:13:42;9.90;94.20
20777;DHT22;10548;47.504;8.248;2024-02-23T14:16:15;10.00;93.90
20777;DHT22;10548;47.504;8.248;2024-02-23T14:18:43;10.10;93.40
20777;DHT22;10548;47.504;8.248;2024-02-23T14:21:11;10.40;96.80
20777;DHT22;10548;47.504;8.248;2024-02-23T14:23:41;10.40;94.70
20777;DHT22;10548;47.504;8.248;2024-02-23T14:26:09;10.20;96.10
20777;DHT22;10548;47.504;8.248;2024-02-23T14:28:36;10.20;97.60
20777;DHT22;10548;47.504;8.248;2024-02-23T14:31:04;10.50;95.40
20777;DHT22;10548;47.504;8.248;2024-02-23T14:33:32;10.70;95.90
20777;DHT22;10548;47.504;8.248;2024-02-23T14:35:59;12.30;91.90
20777;DHT22;10548;47.504;8.248;2024-02-23T14:38:27;13.50;78.60
20777;DHT22;10548;47.504;8.248;2024-02-23T14:40:54;14.60;69.10
20777;DHT22;10548;47.504;8.248;2024-02-23T14:43:22;13.80;65.80
20777;DHT22;10548;47.504;8.248;2024-02-23T14:45:49;12.70;70.90
20777;DHT22;10548;47.504;8.248;2024-02-23T14:48:18;14.20;70.30
20777;DHT22;10548;47.504;8.248;2024-02-23T14:50:46;17.10;50.90
20777;DHT22;10548;47.504;8.248;2024-02-23T14:53:15;16.30;44.50
20777;DHT22;10548;47.504;8.248;2024-02-23T14:55:42;16.00;41.40
20777;DHT22;10548;47.504;8.248;2024-02-23T14:58:09;12.80;50.00
20777;DHT22;10548;47.504;8.248;2024-02-23T15:00:37;12.10;50.30
20777;DHT22;10548;47.504;8.248;2024-02-23T15:03:04;11.60;55.00
20777;DHT22;10548;47.504;8.248;2024-02-23T15:05:32;11.40;59.70
20777;DHT22;10548;47.504;8.248;2024-02-23T15:08:00;11.50;64.00
20777;DHT22;10548;47.504;8.248;2024-02-23T15:10:27;11.10;68.60
20777;DHT22;10548;47.504;8.248;2024-02-23T15:12:55;10.80;68.40
20777;DHT22;10548;47.504;8.248;2024-02-23T15:15:22;10.70;72.20
20777;DHT22;10548;47.504;8.248;2024-02-23T15:17:49;10.10;77.10
20777;DHT22;10548;47.504;8.248;2024-02-23T15:20:17;10.20;82.00
20777;DHT22;10548;47.504;8.248;2024-02-23T15:22:45;10.20;81.50
20777;DHT22;10548;47.504;8.248;2024-02-23T15:25:14;9.90;79.90
20777;DHT22;10548;47.504;8.248;2024-02-23T15:27:42;9.80;83.50
20777;DHT22;10548;47.504;8.248;2024-02-23T15:30:09;9.70;87.90
20777;DHT22;10548;47.504;8.248;2024-02-23T15:32:37;9.90;90.60
20777;DHT22;10548;47.504;8.248;2024-02-23T15:35:06;9.90;94.50
20777;DHT22;10548;47.504;8.248;2024-02-23T15:37:33;9.80;96.00
20777;DHT22;10548;47.504;8.248;2024-02-23T15:40:01;9.70;95.70
20777;DHT22;10548;47.504;8.248;2024-02-23T15:42:31;9.80;93.60
20777;DHT22;10548;47.504;8.248;2024-02-23T15:44:58;9.90;93.70
20777;DHT22;10548;47.504;8.248;2024-02-23T15:47:25;9.80;93.10
20777;DHT22;10548;47.504;8.248;2024-02-23T15:49:52;9.50;93.90
20777;DHT22;10548;47.504;8.248;2024-02-23T15:52:40;9.40;94.70
20777;DHT22;10548;47.504;8.248;2024-02-23T15:55:08;9.50;94.30
20777;DHT22;10548;47.504;8.248;2024-02-23T15:57:39;9.40;96.80
20777;DHT22;10548;47.504;8.248;2024-02-23T16:00:07;9.50;97.70
20777;DHT22;10548;47.504;8.248;2024-02-23T16:02:38;9.40;98.10
20777;DHT22;10548;47.504;8.248;2024-02-23T16:05:06;9.40;97.70
20777;DHT22;10548;47.504;8.248;2024-02-23T16:07:34;9.40;99.50
20777;DHT22;10548;47.504;8.248;2024-02-23T16:10:02;9.30;99.90
20777;DHT22;10548;47.504;8.248;2024-02-23T16:12:29;9.10;99.90
20777;DHT22;10548;47.504;8.248;2024-02-23T16:14:57;8.90;99.90
20777;DHT22;10548;47.504;8.248;2024-02-23T16:17:24;9.00;99.90
20777;DHT22;10548;47.504;8.248;2024-02-23T16:19:52;8.80;99.90
20777;DHT22;10548;47.504;8.248;2024-02-23T16:22:19;8.80;99.90
20777;DHT22;10548;47.504;8.248;2024-02-23T16:24:47;9.30;99.30
20777;DHT22;10548;47.504;8.248;2024-02-23T16:27:14;11.00;95.90
20777;DHT22;10548;47.504;8.248;2024-02-23T16:29:41;12.20;92.20